Sneeuw/IJzel/Bevriezing van: 25-01-2021 09:00 tot: 12:00 waarschuwing voor: Sneeuw/IJzel/Bevriezing  Gevaarniveau: Geel info button
Gladheid door (natte) sneeuw en/of door bevriezing.Kans op gladheid.Alle verkeersdeelnemers kunnen hinder ondervinden.Pas uw rijgedrag aan.Volg weerberichten en waarschuwingen.


Weersoverzicht van METAR-stations binnen 150 km

EHRD - Rotterdam Airport
Afstand tot weerstation: ZO 28 km
Update: 25-01-2021 11:25
Helder
Helder
 Wind van WZW
Wind: WZW 6 km/h
Temperatuur: 3°C
Dauwpunt: 1°C
Luchtvochtigheid: 87%
Luchtdruk: 1005 hPa
Bewolking: Helder
Zicht: 10 km
2021/01/25 10:25 EHRD 251025Z AUTO 25003KT 220V280 9999 NCD 03/01 Q1005 NOSIG
EHSC - Goeree Le Sea (Platform ter hoogte van Zeeland)
Afstand tot weerstation: WZW 36 km
Update: 25-01-2021 11:25

 Wind van NNW
Wind: NNW 19 km/h
Temperatuur: 5°C
Gevoelstemperatuur: 1°C
Dauwpunt: -4°C
Luchtvochtigheid: 53%
Luchtdruk: 1005 hPa
Zicht: 10 km
2021/01/25 10:25 EHSC 251025Z AUTO 33010KT 9999 ///////// 05/M04 Q1005 W06/H6
 
EHAM - A'dam Schiphol
Afstand tot weerstation: ONO 51 km
Update: 25-01-2021 11:25
Enkele wolken
Enkele wolken
 Wind van Variabel
Wind: Variabel 4 km/h
Temperatuur: 4°C
Dauwpunt: 1°C
Luchtvochtigheid: 81%
Luchtdruk: 1004 hPa
Bewolking: Enkele wolken
Zicht: 10 km
Details Bewolking: Enkele wolken 1219 m
2021/01/25 10:25 EHAM 251025Z VRB02KT 9999 FEW040 04/01 Q1004 NOSIG
EHSA - Euro Platform (Ter hoogte van Zeeland)
Afstand tot weerstation: W 58 km
Update: 25-01-2021 11:25

 Wind van W
Wind: W 31 km/h
Temperatuur: 6°C
Gevoelstemperatuur: 1°C
Dauwpunt: 0°C
Luchtvochtigheid: 66%
Luchtdruk: 1005 hPa
Zicht: 10 km
2021/01/25 10:25 EHSA 251025Z AUTO 28017KT 9999 ///////// 06/M00 Q1005 W06/H9
 
EHPG - P11-B Sea (Platform ter hoogte van Zuid Holland)
Afstand tot weerstation: NW 60 km
Update: 25-01-2021 11:25
Gedeeltelijk bewolkt
Gedeeltelijk bewolkt
 Wind van Variabel
Wind: Variabel 26 km/h
Temperatuur: 6°C
Gevoelstemperatuur: 2°C
Dauwpunt: 0°C
Luchtvochtigheid: 66%
Luchtdruk: 1005 hPa
Bewolking: Gedeeltelijk bewolkt
Zicht: 10 km
Details Bewolking: Enkele wolken 640 m
Gedeeltelijk bewolkt 762 m
2021/01/25 10:25 EHPG 251025Z AUTO VRB14KT 9999 FEW021 SCT025 06/M00 Q1005
EHWO - Vliegveld Woensdrecht
Afstand tot weerstation: ZZO 65 km
Update: 25-01-2021 11:25
Helder
Helder
 Wind van WNW
Wind: WNW 6 km/h
Temperatuur: 3°C
Dauwpunt: 1°C
Luchtvochtigheid: 87%
Luchtdruk: 1005 hPa
Bewolking: Helder
Zicht: 10 km
2021/01/25 10:25 EHWO 251025Z AUTO 30003KT 260V360 9999 NCD 03/01 Q1005 BLU
 
EHGR - Vliegveld Gilze-Rijen
Afstand tot weerstation: ZO 79 km
Update: 25-01-2021 11:25
Helder
Helder
 Wind van WNW
Wind: WNW 7 km/h
Temperatuur: 2°C
Gevoelstemperatuur: 0°C
Dauwpunt: 0°C
Luchtvochtigheid: 87%
Luchtdruk: 1005 hPa
Bewolking: Helder
Zicht: 10 km
2021/01/25 10:25 EHGR 251025Z AUTO 30004KT 240V340 9999 NCD 02/00 Q1005 BLU NOSIG
EHQE - Hoorn-A Sea (Platform ter hoogte van Noord Holland)
Afstand tot weerstation: N 103 km
Update: 25-01-2021 11:25
Gedeeltelijk bewolkt
Gedeeltelijk bewolkt
 Wind van W
Wind: W 28 km/h
Temperatuur: 5°C
Gevoelstemperatuur: 1°C
Dauwpunt: -2°C
Luchtvochtigheid: 61%
Luchtdruk: 1003 hPa
Bewolking: Gedeeltelijk bewolkt
Zicht: 10 km
Details Bewolking: Enkele wolken 823 m
Gedeeltelijk bewolkt 1402 m
2021/01/25 10:25 EHQE 251025Z AUTO 26015KT 9999 FEW027 SCT046 05/M02 Q1003
 
EHKD - Marinebasis De Kooy (Den Helder)
Afstand tot weerstation: NNO 114 km
Update: 25-01-2021 11:25
Helder
Helder
 Wind van W
Wind: W 9 km/h
Temperatuur: 3°C
Gevoelstemperatuur: 0°C
Dauwpunt: -1°C
Luchtvochtigheid: 75%
Luchtdruk: 1004 hPa
Bewolking: Helder
Zicht: 10 km
2021/01/25 10:25 EHKD 251025Z AUTO 26005KT 9999 NCD 03/M01 Q1004 BLU NOSIG
EHEH - Vliegveld Eindhoven
Afstand tot weerstation: OZO 115 km
Update: 25-01-2021 11:25
Helder
Helder
 Wind van NW
Wind: NW 6 km/h
Temperatuur: 2°C
Dauwpunt: 1°C
Luchtvochtigheid: 93%
Luchtdruk: 1005 hPa
Bewolking: Helder
Zicht: 10 km
2021/01/25 10:25 EHEH 251025Z AUTO 31003KT 270V030 9999 NCD 02/01 Q1005 BLU NOSIG
 
EHVK - Vliegveld Volkel
Afstand tot weerstation: OZO 124 km
Update: 25-01-2021 11:25
Gedeeltelijk bewolkt
Gedeeltelijk bewolkt
 Wind van NNW
Wind: NNW 6 km/h
Temperatuur: 2°C
Dauwpunt: 0°C
Luchtvochtigheid: 87%
Luchtdruk: 1005 hPa
Bewolking: Gedeeltelijk bewolkt
Zicht: 10 km
Details Bewolking: Gedeeltelijk bewolkt 6401 m
2021/01/25 10:25 EHVK 251025Z AUTO 33003KT 290V010 9999 SCT210 02/M00 Q1005 BLU NOSIG
EHDL - Vliegveld Deelen
Afstand tot weerstation: O 128 km
Update: 25-01-2021 11:25
Mist, Helder
Mist, Helder
 Wind van Variabel
Wind: Variabel 4 km/h
Temperatuur: 1°C
Dauwpunt: 0°C
Luchtvochtigheid: 93%
Luchtdruk: 1004 hPa
Overzicht: Mist
Bewolking: Helder
Zicht: 9 km
2021/01/25 10:25 EHDL 251025Z AUTO VRB02KT 9000 BR NCD 01/00 Q1004 BLU